Time;durP1;ratioP1;P1;durP2;ratioP2;P2;SDS_P1;SDS_P2;PMS_P1;PMS_P2;Temp;Humidity;BMP_temperature;BMP_pressure;BME280_temperature;BME280_humidity;BME280_pressure;Samples;Min_cycle;Max_cycle;Signal;HPM_P1;HPM_P2
2023/02/23 00:00:28;;;;;;;14.90;8.70;;;;;;;-2.89;55.95;99924.06;107381;1260;69903;-41
2023/02/23 00:02:59;;;;;;;14.70;8.80;;;;;;;-2.88;55.85;99927.35;107319;1257;72794;-40
2023/02/23 00:05:30;;;;;;;15.50;8.50;;;;;;;-2.91;55.76;99921.61;107348;1257;59585;-40
2023/02/23 00:07:58;;;;;;;14.20;8.20;;;;;;;-2.95;55.77;99921.80;107290;1257;61449;-40
2023/02/23 00:10:30;;;;;;;19.80;9.00;;;;;;;-3.02;55.75;99929.83;107310;1257;73515;-40
2023/02/23 00:12:59;;;;;;;13.60;8.00;;;;;;;-3.06;55.96;99932.77;107351;1257;69789;-40
2023/02/23 00:15:30;;;;;;;13.30;8.60;;;;;;;-3.07;55.94;99934.09;107304;1257;73923;-40
2023/02/23 00:17:59;;;;;;;15.10;8.50;;;;;;;-3.11;55.85;99933.39;107343;1260;61601;-40
2023/02/23 00:20:28;;;;;;;11.10;6.50;;;;;;;-3.15;55.72;99942.14;106605;1257;1002568;-40
2023/02/23 00:22:58;;;;;;;14.50;8.10;;;;;;;-3.18;55.77;99942.19;107349;1258;73451;-40
2023/02/23 00:25:29;;;;;;;12.30;6.20;;;;;;;-3.27;56.07;99934.81;107342;1257;69834;-40
2023/02/23 00:27:58;;;;;;;14.40;8.60;;;;;;;-3.18;55.95;99945.90;106541;1257;1003452;-40
2023/02/23 00:30:27;;;;;;;17.60;9.30;;;;;;;-3.36;56.08;99922.02;107256;1257;61617;-40
2023/02/23 00:32:55;;;;;;;15.40;8.40;;;;;;;-3.23;56.36;99950.31;107239;1257;61573;-40
2023/02/23 00:35:24;;;;;;;16.00;8.70;;;;;;;-3.24;56.29;99955.24;107101;1257;73321;-40
2023/02/23 00:37:57;;;;;;;16.70;9.10;;;;;;;-3.24;55.97;99962.34;107330;1257;69899;-40
2023/02/23 00:40:26;;;;;;;14.20;8.80;;;;;;;-3.26;55.94;99959.85;107303;1260;73540;-39
2023/02/23 00:42:55;;;;;;;15.30;9.20;;;;;;;-3.26;55.87;99960.96;107314;1258;61568;-40
2023/02/23 00:45:25;;;;;;;14.10;8.70;;;;;;;-3.31;55.58;99966.28;107306;1257;61363;-40
2023/02/23 00:47:53;;;;;;;13.60;8.30;;;;;;;-3.36;55.74;99965.06;107230;1257;74347;-40
2023/02/23 00:50:23;;;;;;;12.60;8.30;;;;;;;-3.37;55.93;99965.95;107244;1257;69929;-40
2023/02/23 00:52:51;;;;;;;14.90;9.00;;;;;;;-3.37;56.01;99964.58;106464;1257;1003520;-40
2023/02/23 00:55:20;;;;;;;18.60;9.20;;;;;;;-3.39;55.83;99968.81;107268;1257;61576;-40
2023/02/23 00:57:50;;;;;;;12.00;6.60;;;;;;;-3.42;55.86;99969.41;107292;1263;61225;-40
2023/02/23 01:00:19;;;;;;;15.00;8.40;;;;;;;-3.41;56.15;99970.76;107192;1257;73324;-40
2023/02/23 01:02:49;;;;;;;13.80;8.40;;;;;;;-3.37;56.23;99979.27;107311;1257;69874;-40
2023/02/23 01:05:19;;;;;;;15.20;9.00;;;;;;;-3.29;56.08;99978.38;107231;1257;72964;-40
2023/02/23 01:07:49;;;;;;;15.40;8.40;;;;;;;-3.21;56.19;99979.87;107213;1257;61438;-39
2023/02/23 01:10:18;;;;;;;13.20;8.50;;;;;;;-3.17;56.02;99980.64;107324;1257;61041;-40
2023/02/23 01:12:49;;;;;;;15.60;8.90;;;;;;;-3.19;55.91;99985.40;107328;1257;75179;-40
2023/02/23 01:15:19;;;;;;;15.30;8.50;;;;;;;-3.16;56.11;99986.80;107310;1257;69602;-40
2023/02/23 01:17:47;;;;;;;15.60;8.70;;;;;;;-3.10;56.35;99984.83;107237;1257;73847;-39
2023/02/23 01:20:17;;;;;;;13.90;8.20;;;;;;;-3.04;56.33;99988.16;107242;1257;61216;-39
2023/02/23 01:22:50;;;;;;;14.50;8.40;;;;;;;-2.99;56.23;99990.27;107314;1257;61643;-39
2023/02/23 01:25:19;;;;;;;16.90;8.80;;;;;;;-2.97;56.33;99988.52;106546;1257;1003698;-40
2023/02/23 01:27:47;;;;;;;16.10;8.90;;;;;;;-2.97;56.27;99988.26;107383;1260;69569;-40
2023/02/23 01:30:17;;;;;;;14.20;8.40;;;;;;;-3.02;56.13;99984.46;107317;1257;73816;-40
2023/02/23 01:32:45;;;;;;;17.00;9.10;;;;;;;-3.07;56.31;99983.85;107247;1260;61615;-40
2023/02/23 01:35:13;;;;;;;13.90;8.90;;;;;;;-3.09;56.33;99987.39;107353;1257;61200;-40
2023/02/23 01:37:42;;;;;;;14.40;8.70;;;;;;;-3.08;56.50;99987.18;107363;1257;74296;-40
2023/02/23 01:40:27;;;;;;;13.30;8.20;;;;;;;-3.06;56.46;99990.48;107335;1257;69860;-40
2023/02/23 01:43:05;;;;;;;14.20;9.10;;;;;;;-3.07;56.36;99991.16;107331;1257;70729;-40
2023/02/23 01:45:35;;;;;;;11.40;7.10;;;;;;;-3.09;56.27;99994.86;107270;1256;61575;-40
2023/02/23 01:48:13;;;;;;;14.70;9.10;;;;;;;-3.13;56.51;99993.23;107305;1257;61315;-40
2023/02/23 01:50:48;;;;;;;18.60;10.20;;;;;;;-3.17;56.36;99991.78;107289;1257;73089;-41
2023/02/23 01:53:16;;;;;;;15.00;9.10;;;;;;;-3.19;56.68;99996.91;106616;1257;1003428;-40
2023/02/23 01:55:45;;;;;;;19.60;10.00;;;;;;;-3.20;56.68;100000.58;107168;1257;74352;-40
2023/02/23 01:58:18;;;;;;;15.80;10.10;;;;;;;-3.22;56.71;100006.91;107258;1256;61424;-39
2023/02/23 02:00:55;;;;;;;16.00;9.70;;;;;;;-3.27;56.80;100008.77;107230;1257;61538;-39
2023/02/23 02:03:30;;;;;;;17.60;10.30;;;;;;;-3.33;56.87;100015.61;107150;1256;74714;-39
2023/02/23 02:06:00;;;;;;;17.90;9.40;;;;;;;-3.38;57.02;100016.75;106642;1257;1002462;-39
2023/02/23 02:08:30;;;;;;;17.90;10.00;;;;;;;-3.50;56.94;100003.77;107245;1257;73856;-39
2023/02/23 02:11:24;;;;;;;15.40;9.40;;;;;;;-3.46;56.79;100023.62;107334;1257;61584;-39
2023/02/23 02:13:54;;;;;;;16.30;9.70;;;;;;;-3.55;56.73;100025.06;107256;1257;61623;-39
2023/02/23 02:17:01;;;;;;;17.20;9.40;;;;;;;-3.62;56.99;100030.57;107337;1257;74620;-39
2023/02/23 02:20:31;;;;;;;20.20;10.00;;;;;;;-3.65;57.01;100029.58;107378;1257;69950;-39
2023/02/23 02:23:26;;;;;;;17.50;9.60;;;;;;;-3.70;56.84;100032.76;107184;1257;73902;-39
2023/02/23 02:26:14;;;;;;;13.80;8.80;;;;;;;-3.73;57.00;100036.39;107279;1260;61275;-39
2023/02/23 02:28:49;;;;;;;16.20;9.90;;;;;;;-3.72;56.99;100037.20;107343;1257;61534;-39
2023/02/23 02:31:48;;;;;;;18.20;10.40;;;;;;;-3.73;56.82;100037.23;107313;1260;74852;-39
2023/02/23 02:34:50;;;;;;;17.90;9.90;;;;;;;-3.75;56.85;100041.98;107354;1257;68584;-39
2023/02/23 02:37:32;;;;;;;19.20;10.00;;;;;;;-3.80;56.79;100046.38;106577;1256;1003717;-39
2023/02/23 02:40:21;;;;;;;17.80;9.80;;;;;;;-3.81;57.00;100046.89;107340;1256;60469;-39
2023/02/23 02:43:11;;;;;;;14.00;7.70;;;;;;;-3.78;57.06;100050.10;107386;1259;60600;-39
2023/02/23 02:45:58;;;;;;;18.60;10.70;;;;;;;-3.77;57.21;100057.85;107334;1257;75012;-39
2023/02/23 02:48:29;;;;;;;16.50;9.70;;;;;;;-3.77;57.15;100057.20;107404;1256;69965;-39
2023/02/23 02:51:33;;;;;;;21.80;10.60;;;;;;;-3.78;57.16;100061.12;107238;1257;73696;-39
2023/02/23 02:54:26;;;;;;;24.00;12.00;;;;;;;-3.81;57.03;100057.90;107388;1257;60107;-39
2023/02/23 02:56:56;;;;;;;19.70;11.00;;;;;;;-3.89;57.07;100063.12;107375;1256;61304;-39
2023/02/23 04:19:56;;;;;;;20.10;11.70;;;;;;;-5.43;60.10;100121.38;107240;1262;61556;-39
2023/02/23 04:22:25;;;;;;;20.20;11.40;;;;;;;-5.39;60.29;100123.41;107302;1257;61567;-39
2023/02/23 04:24:53;;;;;;;22.30;11.40;;;;;;;-5.33;60.55;100125.84;107175;1257;75228;-39
2023/02/23 04:27:22;;;;;;;14.70;8.20;;;;;;;-5.28;60.56;100129.58;107213;1257;69780;-39
2023/02/23 04:29:51;;;;;;;18.70;8.40;;;;;;;-5.23;60.50;100134.80;107208;1257;73432;-39
2023/02/23 04:32:21;;;;;;;22.30;10.50;;;;;;;-5.20;60.14;100135.02;107227;1257;61289;-39
2023/02/23 04:34:50;;;;;;;25.20;11.90;;;;;;;-5.18;60.12;100137.63;107240;1257;61569;-39
2023/02/23 04:37:19;;;;;;;20.00;11.10;;;;;;;-5.17;59.94;100140.13;106496;1256;1003458;-39
2023/02/23 04:39:48;;;;;;;23.10;11.40;;;;;;;-5.16;60.15;100142.06;107296;1257;68868;-40
2023/02/23 04:42:17;;;;;;;;;;;;;;;-5.14;60.01;100148.59;107295;1257;73806;-40
2023/02/23 04:44:46;;;;;;;19.00;9.90;;;;;;;-5.20;59.79;100147.06;107272;1257;61682;-40
2023/02/23 04:47:14;;;;;;;18.20;10.30;;;;;;;-5.24;59.86;100148.78;107264;1256;61288;-40
2023/02/23 04:49:43;;;;;;;21.70;10.60;;;;;;;-5.22;59.69;100152.67;107275;1257;74690;-40
2023/02/23 04:52:11;;;;;;;18.00;10.60;;;;;;;-5.20;59.67;100156.63;107257;1257;68938;-40
2023/02/23 04:54:40;;;;;;;16.10;8.30;;;;;;;-5.19;59.53;100155.27;107281;1260;73719;-40
2023/02/23 04:57:09;;;;;;;20.60;10.80;;;;;;;-5.21;59.77;100157.77;107205;1256;62035;-40
2023/02/23 04:59:37;;;;;;;19.80;10.80;;;;;;;-5.22;59.58;100159.44;107292;1256;61557;-40
2023/02/23 05:02:06;;;;;;;19.60;11.00;;;;;;;-5.24;59.53;100159.52;106524;1257;1002949;-40
2023/02/23 05:04:37;;;;;;;21.20;10.40;;;;;;;-5.25;59.64;100165.05;107279;1256;69969;-40
2023/02/23 05:07:06;;;;;;;21.80;12.10;;;;;;;-5.26;59.81;100166.62;107250;1257;72271;-40
2023/02/23 05:09:34;;;;;;;22.10;11.80;;;;;;;-5.30;59.13;100171.23;107271;1257;61648;-40
2023/02/23 05:12:03;;;;;;;21.70;11.90;;;;;;;-5.41;59.03;100175.16;107294;1256;61068;-40
2023/02/23 05:14:33;;;;;;;23.30;12.60;;;;;;;-5.56;59.41;100176.48;107280;1257;73894;-40
2023/02/23 05:17:01;;;;;;;24.50;13.60;;;;;;;-5.64;59.68;100182.25;107309;1256;68467;-40
2023/02/23 05:19:34;;;;;;;32.20;15.80;;;;;;;-5.63;60.02;100182.69;107292;1257;73203;-40
2023/02/23 05:22:04;;;;;;;36.50;17.30;;;;;;;-5.60;60.24;100186.77;107219;1257;61239;-40
2023/02/23 05:24:33;;;;;;;42.50;19.30;;;;;;;-5.56;60.34;100189.44;106467;1257;1003824;-40
2023/02/23 05:27:01;;;;;;;47.20;20.70;;;;;;;-5.50;60.20;100194.21;106480;1257;1003426;-40
2023/02/23 05:29:30;;;;;;;54.00;22.30;;;;;;;-5.53;60.44;100185.60;107196;1257;69864;-40
2023/02/23 05:31:59;;;;;;;42.90;19.70;;;;;;;-5.39;60.55;100202.31;107196;1257;73597;-40
2023/02/23 05:34:28;;;;;;;40.10;18.30;;;;;;;-5.36;60.27;100203.67;107288;1257;61553;-40
2023/02/23 05:36:56;;;;;;;33.70;16.90;;;;;;;-5.35;60.52;100205.29;107239;1257;60424;-40
2023/02/23 05:39:25;;;;;;;26.10;14.10;;;;;;;-5.33;60.29;100209.24;106462;1260;1003574;-40
2023/02/23 05:41:54;;;;;;;27.40;13.90;;;;;;;-5.29;60.35;100211.69;107192;1257;69840;-40
2023/02/23 05:44:23;;;;;;;24.60;14.00;;;;;;;-5.25;60.48;100216.58;107252;1257;73628;-39
2023/02/23 05:46:52;;;;;;;22.40;13.30;;;;;;;-5.20;60.39;100225.14;106594;1257;1003435;-40
2023/02/23 05:49:21;;;;;;;25.80;13.70;;;;;;;-5.18;60.42;100226.02;107345;1257;61691;-40
2023/02/23 05:51:50;;;;;;;26.50;13.80;;;;;;;-5.16;60.54;100227.30;107338;1257;74974;-40
2023/02/23 05:54:19;;;;;;;21.60;13.00;;;;;;;-5.10;60.36;100228.09;106537;1257;1003157;-40
2023/02/23 05:56:48;;;;;;;22.50;12.30;;;;;;;-5.04;60.30;100233.95;107269;1257;72931;-40
2023/02/23 05:59:17;;;;;;;22.80;12.60;;;;;;;-5.00;60.23;100235.89;107260;1257;61633;-40
2023/02/23 06:01:45;;;;;;;26.90;13.90;;;;;;;-4.94;60.25;100235.89;106502;1256;1003202;-40
2023/02/23 06:04:18;;;;;;;25.50;13.40;;;;;;;-4.85;59.95;100239.42;106536;1257;1002883;-40
2023/02/23 06:06:48;;;;;;;24.80;14.50;;;;;;;-4.85;60.05;100232.15;107276;1257;69644;-40
2023/02/23 06:09:17;;;;;;;20.30;10.90;;;;;;;-4.70;59.87;100247.80;107299;1256;73842;-40
2023/02/23 06:11:47;;;;;;;22.00;13.20;;;;;;;-4.63;59.95;100250.14;107262;1260;61507;-40
2023/02/23 06:14:15;;;;;;;23.50;13.10;;;;;;;-4.59;59.75;100253.17;106478;1257;1003161;-40
2023/02/23 06:16:47;;;;;;;26.30;12.50;;;;;;;-4.57;59.70;100260.79;107254;1257;74926;-40
2023/02/23 06:19:17;;;;;;;24.90;13.10;;;;;;;-4.58;59.67;100257.17;107251;1257;70042;-40
2023/02/23 06:21:45;;;;;;;24.00;13.00;;;;;;;-4.55;59.61;100260.13;107168;1259;73842;-40
2023/02/23 06:24:14;;;;;;;27.20;13.30;;;;;;;-4.49;59.58;100259.55;107154;1257;61708;-40
2023/02/23 06:26:44;;;;;;;22.20;12.00;;;;;;;-4.43;59.40;100264.41;107291;1257;61335;-40
2023/02/23 06:29:13;;;;;;;16.30;8.90;;;;;;;-4.36;59.18;100264.70;107155;1257;75030;-40
2023/02/23 06:31:43;;;;;;;24.20;13.00;;;;;;;-4.29;58.86;100269.57;107252;1257;69889;-40
2023/02/23 06:34:12;;;;;;;25.00;13.00;;;;;;;-4.22;58.62;100267.66;107249;1257;73854;-40
2023/02/23 06:36:42;;;;;;;22.50;11.90;;;;;;;-4.17;58.41;100272.05;107167;1257;61427;-40
2023/02/23 06:39:12;;;;;;;22.60;11.70;;;;;;;-4.10;58.27;100273.11;107188;1257;61597;-40
2023/02/23 06:41:42;;;;;;;21.80;11.50;;;;;;;-4.06;58.02;100269.58;107207;1257;74047;-40
2023/02/23 06:44:10;;;;;;;18.70;10.80;;;;;;;-4.01;57.84;100274.20;107242;1257;69948;-40
2023/02/23 06:46:41;;;;;;;18.00;11.00;;;;;;;-3.96;57.70;100274.45;106497;1257;1002928;-40
2023/02/23 06:49:10;;;;;;;23.70;10.50;;;;;;;-3.94;57.62;100277.12;107230;1257;60486;-40
2023/02/23 06:51:41;;;;;;;17.30;10.20;;;;;;;-3.93;57.29;100279.04;107295;1257;61221;-40
2023/02/23 06:54:10;;;;;;;19.60;11.40;;;;;;;-3.92;57.17;100278.09;106516;1257;1003443;-40
2023/02/23 06:56:39;;;;;;;18.60;11.00;;;;;;;-3.90;57.39;100280.67;107262;1260;69020;-40
2023/02/23 06:59:08;;;;;;;24.80;11.50;;;;;;;-3.90;56.89;100280.98;107225;1257;73760;-40
2023/02/23 07:01:43;;;;;;;20.30;11.00;;;;;;;-3.95;57.06;100288.34;107210;1257;61608;-40
2023/02/23 07:04:12;;;;;;;20.70;11.20;;;;;;;-3.95;57.13;100292.90;106501;1261;1002876;-40
2023/02/23 07:06:43;;;;;;;18.10;11.20;;;;;;;-3.99;57.01;100290.20;106470;1257;1002899;-40
2023/02/23 07:09:14;;;;;;;19.20;10.70;;;;;;;-3.96;56.78;100291.77;106884;1253;1003009;-40
2023/02/23 07:11:45;;;;;;;18.10;11.20;;;;;;;-3.91;56.22;100292.31;107551;1253;73816;-40
2023/02/23 07:14:15;;;;;;;20.00;11.00;;;;;;;-3.88;56.35;100288.38;107576;1254;60455;-40
2023/02/23 07:16:53;;;;;;;16.20;9.60;;;;;;;-3.80;56.65;100292.01;107552;1252;60418;-40
2023/02/23 07:19:23;;;;;;;18.10;11.70;;;;;;;-3.70;56.68;100292.41;106736;1254;1002937;-40
2023/02/23 07:21:52;;;;;;;21.00;11.50;;;;;;;-3.61;56.62;100289.84;107581;1254;69024;-40
2023/02/23 07:24:21;;;;;;;24.30;12.00;;;;;;;-3.52;56.57;100292.55;107623;1253;73637;-40
2023/02/23 07:26:50;;;;;;;18.10;10.70;;;;;;;-3.48;56.28;100290.45;107555;1253;61310;-40
2023/02/23 07:29:19;;;;;;;20.10;10.60;;;;;;;-3.46;56.16;100288.56;107581;1253;61563;-40
2023/02/23 07:31:49;;;;;;;16.70;10.10;;;;;;;-3.47;56.09;100277.05;107494;1256;74396;-40
2023/02/23 07:34:18;;;;;;;17.90;10.10;;;;;;;-3.29;55.58;100292.09;107598;1253;69945;-40
2023/02/23 07:36:46;;;;;;;18.70;10.20;;;;;;;-3.20;55.32;100292.98;107634;1253;73687;-40
2023/02/23 07:39:15;;;;;;;17.00;9.90;;;;;;;-3.14;54.53;100293.66;107630;1252;60457;-40
2023/02/23 07:41:43;;;;;;;18.50;9.90;;;;;;;-3.10;54.22;100291.64;107620;1253;61230;-40
2023/02/23 07:44:21;;;;;;;14.60;9.40;;;;;;;-3.10;54.64;100291.95;107596;1254;75042;-40
2023/02/23 07:46:51;;;;;;;18.10;9.00;;;;;;;-3.01;54.58;100292.43;107631;1254;69435;-40
2023/02/23 07:49:20;;;;;;;18.60;10.00;;;;;;;-2.88;54.04;100299.52;106101;1253;1004594;-40
2023/02/23 07:51:48;;;;;;;18.20;9.40;;;;;;;-2.76;53.67;100294.63;106846;1254;1002482;-40
2023/02/23 07:54:18;;;;;;;;;;;;;;;-2.61;53.58;100297.48;107619;1254;61238;-40
2023/02/23 07:56:47;;;;;;;18.30;9.60;;;;;;;-2.47;53.61;100298.11;107639;1253;75030;-40
2023/02/23 07:59:16;;;;;;;14.90;9.40;;;;;;;-2.27;53.35;100304.25;107548;1254;68726;-41
2023/02/23 08:01:44;;;;;;;17.00;9.30;;;;;;;-2.04;52.77;100303.86;107535;1254;73859;-40
2023/02/23 08:04:14;;;;;;;14.70;9.90;;;;;;;-1.77;52.17;100306.03;107546;1254;60375;-40
2023/02/23 08:06:43;;;;;;;17.10;9.80;;;;;;;-1.57;51.55;100300.70;107673;1254;61422;-40
2023/02/23 08:09:11;;;;;;;16.70;9.80;;;;;;;-1.37;51.51;100299.55;107604;1253;75042;-40
2023/02/23 08:11:40;;;;;;;18.40;10.30;;;;;;;-1.21;50.63;100301.38;107627;1253;70151;-40
2023/02/23 08:14:09;;;;;;;16.90;10.20;;;;;;;-1.14;50.82;100299.06;107596;1254;73625;-41
2023/02/23 08:16:38;;;;;;;18.70;10.40;;;;;;;-0.95;50.26;100295.48;107575;1254;60815;-41
2023/02/23 08:19:08;;;;;;;14.80;9.30;;;;;;;-0.76;50.21;100296.02;107592;1253;62527;-41
2023/02/23 08:21:37;;;;;;;16.80;9.70;;;;;;;-0.53;49.69;100291.39;107611;1254;74041;-39
2023/02/23 08:24:09;;;;;;;14.90;9.20;;;;;;;-0.37;49.23;100289.88;107595;1253;68987;-41
2023/02/23 08:26:40;;;;;;;13.40;9.10;;;;;;;-0.19;48.70;100294.52;107585;1254;73818;-41
2023/02/23 08:29:09;;;;;;;17.20;9.90;;;;;;;0.04;48.49;100294.27;107616;1252;60749;-41
2023/02/23 08:31:39;;;;;;;15.80;9.90;;;;;;;0.22;48.38;100296.23;106891;1253;1015519;-38
2023/02/23 08:34:09;;;;;;;16.70;10.00;;;;;;;0.43;48.37;100301.52;107585;1254;75039;-38
2023/02/23 08:36:40;;;;;;;16.30;9.90;;;;;;;0.66;47.20;100300.70;107582;1256;69879;-38
2023/02/23 08:39:12;;;;;;;16.20;9.90;;;;;;;0.82;47.14;100298.57;107611;1254;73879;-38
2023/02/23 08:41:42;;;;;;;17.10;10.40;;;;;;;1.02;46.80;100297.42;107492;1254;60425;-40
2023/02/23 08:44:10;;;;;;;16.30;10.00;;;;;;;1.15;45.68;100296.29;107493;1252;61488;-39
2023/02/23 08:50:22;;;;;;;18.00;9.90;;;;;;;1.35;45.28;100290.38;107558;1253;68620;-40
2023/02/23 08:52:53;;;;;;;14.40;9.40;;;;;;;1.45;45.05;100292.50;107564;1254;73838;-39
2023/02/23 08:55:25;;;;;;;15.20;9.70;;;;;;;1.49;43.85;100296.61;106858;1256;1002848;-39
2023/02/23 08:57:53;;;;;;;14.50;9.10;;;;;;;1.42;43.49;100297.23;106867;1253;1003059;-39
2023/02/23 09:00:23;;;;;;;15.90;9.70;;;;;;;1.21;43.65;100296.00;107608;1254;74669;-40
2023/02/23 09:02:51;;;;;;;16.40;9.90;;;;;;;1.11;44.72;100293.48;107662;1256;69640;-40
2023/02/23 09:05:20;;;;;;;17.20;10.50;;;;;;;1.18;45.06;100296.88;107581;1253;73915;-40
2023/02/23 09:07:50;;;;;;;17.40;9.80;;;;;;;1.40;45.20;100305.31;107618;1254;60812;-40
2023/02/23 09:10:19;;;;;;;16.30;9.50;;;;;;;1.68;44.59;100307.65;107630;1253;61558;-40
2023/02/23 09:12:50;;;;;;;15.40;10.10;;;;;;;1.95;43.70;100308.00;107623;1253;74768;-39
2023/02/23 09:15:19;;;;;;;15.60;10.30;;;;;;;2.07;43.66;100309.71;107586;1252;68711;-40
2023/02/23 09:17:47;;;;;;;18.60;10.40;;;;;;;2.12;43.10;100308.34;107613;1254;72818;-40
2023/02/23 09:20:16;;;;;;;11.30;7.00;;;;;;;2.12;42.58;100309.58;107631;1256;60991;-40
2023/02/23 09:22:47;;;;;;;14.80;10.30;;;;;;;2.19;42.89;100307.05;107636;1254;61572;-40
2023/02/23 09:25:21;;;;;;;17.60;10.20;;;;;;;2.34;41.91;100308.36;107558;1254;74919;-40
2023/02/23 09:27:52;;;;;;;18.30;10.10;;;;;;;2.57;42.26;100311.89;107592;1254;69986;-40
2023/02/23 09:30:21;;;;;;;16.40;10.00;;;;;;;2.85;41.80;100309.56;107638;1254;72623;-40
2023/02/23 09:32:49;;;;;;;13.40;7.30;;;;;;;3.07;40.94;100303.09;107593;1254;60750;-40
2023/02/23 09:35:19;;;;;;;16.90;9.90;;;;;;;3.26;40.66;100303.65;107611;1253;61516;-40
2023/02/23 09:37:52;;;;;;;15.00;9.20;;;;;;;3.42;40.59;100302.38;107688;1254;74982;-40
2023/02/23 09:40:25;;;;;;;15.60;9.90;;;;;;;3.63;39.74;100303.48;107593;1254;68891;-40
2023/02/23 09:43:14;;;;;;;14.80;8.80;;;;;;;3.74;39.32;100299.56;107413;1254;72685;-41
2023/02/23 09:45:47;;;;;;;16.80;9.80;;;;;;;3.88;39.46;100300.68;107619;1254;60794;-41
2023/02/23 09:48:24;;;;;;;16.30;9.70;;;;;;;4.02;38.61;100300.52;107570;1254;61334;-40
2023/02/23 09:50:54;;;;;;;16.50;9.60;;;;;;;4.09;37.49;100277.11;107604;1254;75114;-40
2023/02/23 09:53:31;;;;;;;16.20;10.60;;;;;;;4.29;37.61;100292.83;107604;1254;68341;-40
2023/02/23 09:56:05;;;;;;;15.30;9.70;;;;;;;4.51;38.16;100289.86;107610;1254;72326;-40
2023/02/23 09:58:34;;;;;;;12.90;9.20;;;;;;;4.71;37.24;100289.27;107445;1254;200159;-40
2023/02/23 10:02:31;;;;;;;13.90;9.20;;;;;;;4.76;36.42;100291.42;104108;1292;600864;-38
2023/02/23 10:05:04;;;;;;;16.30;9.80;;;;;;;4.77;36.91;100288.93;104390;1267;1003691;-40
2023/02/23 10:07:43;;;;;;;16.10;9.30;;;;;;;4.87;36.32;100288.80;106635;1267;61503;-40
2023/02/23 10:10:27;;;;;;;13.20;8.60;;;;;;;4.89;35.93;100281.52;106630;1266;72197;-39
2023/02/23 10:12:59;;;;;;;14.00;9.10;;;;;;;4.71;35.01;100285.34;106705;1266;67611;-40
2023/02/23 10:15:51;;;;;;;11.70;8.00;;;;;;;4.25;35.95;100272.34;106572;1263;179619;-40
2023/02/23 10:18:28;;;;;;;16.80;9.50;;;;;;;3.99;35.67;100284.31;106858;1264;60774;-40
2023/02/23 10:21:16;;;;;;;14.30;9.10;;;;;;;3.57;37.22;100279.64;106833;1264;61557;-40
2023/02/23 10:23:46;;;;;;;12.10;8.90;;;;;;;3.57;38.41;100280.14;106898;1263;72077;-40
2023/02/23 10:26:23;;;;;;;17.00;10.20;;;;;;;3.86;38.52;100276.80;106862;1264;68484;-40
2023/02/23 10:28:53;;;;;;;13.60;9.10;;;;;;;4.15;38.07;100278.11;106881;1264;72637;-40
2023/02/23 10:31:40;;;;;;;15.30;9.90;;;;;;;4.33;37.89;100274.83;106773;1264;59647;-40
2023/02/23 10:34:17;;;;;;;13.90;8.90;;;;;;;4.54;37.87;100278.73;106732;1267;61527;-40
2023/02/23 10:36:57;;;;;;;11.00;6.30;;;;;;;4.78;36.89;100280.66;106801;1264;73239;-40
2023/02/23 10:39:26;;;;;;;12.50;9.10;;;;;;;4.86;35.92;100280.28;106898;1264;68146;-40
2023/02/23 10:41:59;;;;;;;13.90;9.40;;;;;;;4.88;36.72;100279.65;106867;1264;73886;-40
2023/02/23 10:44:28;;;;;;;15.00;9.20;;;;;;;4.96;35.92;100280.23;106809;1264;60694;-40
2023/02/23 10:47:07;;;;;;;13.50;9.00;;;;;;;4.96;35.49;100278.30;106778;1264;61226;-40
2023/02/23 10:49:47;;;;;;;15.50;9.40;;;;;;;4.98;35.28;100274.98;106860;1263;73513;-40
2023/02/23 10:52:47;;;;;;;12.50;8.20;;;;;;;5.04;34.51;100265.61;106811;1264;70085;-40
2023/02/23 10:55:24;;;;;;;15.10;9.80;;;;;;;5.17;36.16;100259.54;106654;1264;73931;-40
2023/02/23 10:58:02;;;;;;;17.20;9.40;;;;;;;5.43;35.61;100257.77;106817;1264;60779;-40
2023/02/23 11:00:32;;;;;;;14.40;8.60;;;;;;;5.72;35.50;100258.77;106846;1264;61670;-40
2023/02/23 11:03:03;;;;;;;11.20;8.60;;;;;;;5.94;35.11;100259.54;106860;1264;73047;-40
2023/02/23 11:05:36;;;;;;;15.10;9.30;;;;;;;6.04;33.75;100260.55;106797;1264;70012;-41
2023/02/23 11:08:19;;;;;;;12.80;8.40;;;;;;;5.99;33.67;100258.56;106860;1264;72758;-41
2023/02/23 11:11:04;;;;;;;14.10;9.10;;;;;;;5.89;33.16;100255.66;106849;1263;60819;-40
2023/02/23 11:13:38;;;;;;;12.20;7.90;;;;;;;5.64;33.61;100256.91;106727;1263;61326;-40
2023/02/23 11:16:11;;;;;;;11.70;8.20;;;;;;;5.53;33.46;100261.48;106797;1263;73945;-40
2023/02/23 11:19:02;;;;;;;10.00;7.50;;;;;;;5.43;32.99;100263.31;106747;1263;70028;-40
2023/02/23 11:21:38;;;;;;;10.60;7.60;;;;;;;5.44;33.39;100261.67;106857;1264;73484;-40
2023/02/23 11:24:35;;;;;;;14.40;8.60;;;;;;;5.54;32.42;100260.76;106788;1264;60794;-40
2023/02/23 11:27:05;;;;;;;11.40;7.80;;;;;;;5.60;32.88;100260.39;106784;1264;61394;-41
2023/02/23 11:29:35;;;;;;;11.10;8.30;;;;;;;5.79;32.65;100262.35;106790;1263;72318;-41
2023/02/23 11:32:29;;;;;;;12.90;8.50;;;;;;;5.93;31.62;100257.35;106834;1264;69931;-41
2023/02/23 11:35:19;;;;;;;10.80;7.60;;;;;;;5.96;31.71;100251.89;106812;1263;73711;-41
2023/02/23 11:37:48;;;;;;;13.60;7.50;;;;;;;6.17;31.67;100250.23;106808;1264;60863;-41
2023/02/23 11:40:19;;;;;;;11.30;7.00;;;;;;;6.16;30.42;100246.91;106840;1264;61239;-41
2023/02/23 11:42:52;;;;;;;10.50;7.40;;;;;;;5.89;30.82;100247.89;106841;1264;73929;-41
2023/02/23 11:45:22;;;;;;;13.60;7.30;;;;;;;5.70;31.11;100245.05;106872;1264;69447;-41
2023/02/23 11:47:57;;;;;;;9.90;7.10;;;;;;;5.58;31.20;100236.84;106863;1267;73859;-41
2023/02/23 11:50:34;;;;;;;10.70;7.30;;;;;;;5.58;30.91;100237.98;106835;1264;60820;-41
2023/02/23 11:53:12;;;;;;;10.70;7.50;;;;;;;5.78;30.94;100242.02;106802;1263;59971;-41
2023/02/23 11:55:50;;;;;;;11.40;6.60;;;;;;;6.15;30.83;100242.09;106792;1264;73646;-41
2023/02/23 11:58:34;;;;;;;9.60;7.00;;;;;;;6.58;30.57;100246.36;106742;1264;67830;-41
2023/02/23 12:01:12;;;;;;;9.10;6.30;;;;;;;7.01;29.79;100246.69;106763;1264;73473;-41
2023/02/23 12:03:55;;;;;;;10.40;7.30;;;;;;;7.28;29.10;100242.83;106724;1264;60810;-41
2023/02/23 12:06:28;;;;;;;10.20;6.90;;;;;;;7.39;28.56;100236.43;106843;1263;61614;-41
2023/02/23 12:09:01;;;;;;;11.60;6.50;;;;;;;7.23;28.09;100238.45;106823;1263;73334;-41
2023/02/23 12:11:33;;;;;;;8.20;6.30;;;;;;;7.12;27.29;100236.23;106879;1263;69933;-41
2023/02/23 12:14:27;;;;;;;10.00;6.20;;;;;;;7.27;27.79;100240.73;106772;1264;73758;-41
2023/02/23 12:17:01;;;;;;;9.20;6.60;;;;;;;7.37;27.54;100236.56;106720;1264;60740;-41
2023/02/23 12:19:53;;;;;;;8.30;6.30;;;;;;;7.26;28.84;100233.18;106847;1263;61586;-41
2023/02/23 12:22:25;;;;;;;8.90;6.10;;;;;;;7.66;27.79;100229.06;106766;1264;72531;-41
2023/02/23 12:25:03;;;;;;;8.40;6.50;;;;;;;7.83;27.87;100229.43;106883;1264;69832;-41
2023/02/23 12:27:43;;;;;;;8.20;6.10;;;;;;;8.07;27.13;100229.99;106840;1263;73872;-41
2023/02/23 12:30:37;;;;;;;9.10;6.40;;;;;;;7.96;26.88;100224.10;106835;1264;59422;-42
2023/02/23 12:33:28;;;;;;;9.60;6.50;;;;;;;7.66;26.77;100222.55;106731;1263;61038;-42
2023/02/23 12:36:20;;;;;;;10.50;7.00;;;;;;;7.54;27.34;100220.42;105230;1266;1003828;-42
2023/02/23 12:38:56;;;;;;;10.50;6.60;;;;;;;7.77;27.50;100214.35;106799;1266;69876;-40
2023/02/23 12:41:39;;;;;;;7.60;5.80;;;;;;;8.23;26.45;100208.01;106640;1266;73724;-41
2023/02/23 12:44:14;;;;;;;9.60;6.40;;;;;;;8.76;26.05;100200.80;106717;1266;59664;-41
2023/02/23 12:46:50;;;;;;;9.50;6.80;;;;;;;9.10;25.05;100197.06;106693;1269;60148;-41
2023/02/23 12:49:21;;;;;;;8.10;6.30;;;;;;;8.84;25.26;100196.98;106637;1267;74260;-41
2023/02/23 12:51:52;;;;;;;10.90;7.10;;;;;;;8.62;26.31;100195.95;106709;1266;70067;-41
2023/02/23 12:54:21;;;;;;;10.50;6.60;;;;;;;8.74;25.67;100196.42;106711;1267;73971;-41
2023/02/23 12:56:53;;;;;;;10.30;6.60;;;;;;;8.93;25.46;100183.96;106686;1266;60804;-41
2023/02/23 12:59:32;;;;;;;7.40;5.50;;;;;;;9.10;25.54;100182.73;106939;1263;59611;-41
2023/02/23 13:02:05;;;;;;;8.80;6.10;;;;;;;9.52;25.20;100174.69;106852;1263;73988;-41